sensor_id;sensor_type;location;lat;lon;timestamp;P1;durP1;ratioP1;P2;durP2;ratioP2
61200;SDS011;47065;52.898;6.992;2022-11-14T00:01:56;42.10;;;22.75;;
61200;SDS011;47065;52.898;6.992;2022-11-14T00:04:22;44.22;;;23.48;;
61200;SDS011;47065;52.898;6.992;2022-11-14T00:06:48;45.50;;;23.92;;
61200;SDS011;47065;52.898;6.992;2022-11-14T00:09:13;45.53;;;24.00;;
61200;SDS011;47065;52.898;6.992;2022-11-14T00:11:39;44.55;;;25.55;;
61200;SDS011;47065;52.898;6.992;2022-11-14T00:14:05;39.60;;;23.33;;
61200;SDS011;47065;52.898;6.992;2022-11-14T00:16:30;44.70;;;24.55;;
61200;SDS011;47065;52.898;6.992;2022-11-14T00:18:56;47.00;;;25.70;;
61200;SDS011;47065;52.898;6.992;2022-11-14T00:21:22;52.63;;;26.48;;
61200;SDS011;47065;52.898;6.992;2022-11-14T00:23:47;50.13;;;28.15;;
61200;SDS011;47065;52.898;6.992;2022-11-14T00:26:13;48.05;;;25.75;;
61200;SDS011;47065;52.898;6.992;2022-11-14T00:28:39;53.08;;;30.55;;
61200;SDS011;47065;52.898;6.992;2022-11-14T00:31:04;53.15;;;29.52;;
61200;SDS011;47065;52.898;6.992;2022-11-14T00:33:30;54.72;;;27.13;;
61200;SDS011;47065;52.898;6.992;2022-11-14T00:35:56;50.03;;;26.55;;
61200;SDS011;47065;52.898;6.992;2022-11-14T00:38:21;51.47;;;27.48;;
61200;SDS011;47065;52.898;6.992;2022-11-14T00:40:47;60.22;;;28.25;;
61200;SDS011;47065;52.898;6.992;2022-11-14T00:43:13;56.05;;;29.25;;
61200;SDS011;47065;52.898;6.992;2022-11-14T00:45:41;56.92;;;29.55;;
61200;SDS011;47065;52.898;6.992;2022-11-14T00:48:08;53.15;;;28.55;;
61200;SDS011;47065;52.898;6.992;2022-11-14T00:50:33;53.95;;;29.48;;
61200;SDS011;47065;52.898;6.992;2022-11-14T00:52:59;54.17;;;28.23;;
61200;SDS011;47065;52.898;6.992;2022-11-14T00:55:25;57.67;;;29.92;;
61200;SDS011;47065;52.898;6.992;2022-11-14T00:57:50;53.67;;;29.48;;
61200;SDS011;47065;52.898;6.992;2022-11-14T01:00:16;62.30;;;32.30;;
61200;SDS011;47065;52.898;6.992;2022-11-14T01:02:41;59.05;;;32.28;;
61200;SDS011;47065;52.898;6.992;2022-11-14T01:05:08;60.58;;;31.13;;
61200;SDS011;47065;52.898;6.992;2022-11-14T01:07:34;59.83;;;29.98;;
61200;SDS011;47065;52.898;6.992;2022-11-14T01:09:59;56.95;;;29.85;;
61200;SDS011;47065;52.898;6.992;2022-11-14T01:12:25;66.32;;;33.20;;
61200;SDS011;47065;52.898;6.992;2022-11-14T01:14:51;65.13;;;34.28;;
61200;SDS011;47065;52.898;6.992;2022-11-14T01:17:16;65.70;;;33.53;;
61200;SDS011;47065;52.898;6.992;2022-11-14T01:19:42;65.82;;;33.05;;
61200;SDS011;47065;52.898;6.992;2022-11-14T01:22:08;68.70;;;35.40;;
61200;SDS011;47065;52.898;6.992;2022-11-14T01:24:33;71.00;;;35.03;;
61200;SDS011;47065;52.898;6.992;2022-11-14T01:26:59;61.70;;;33.60;;
61200;SDS011;47065;52.898;6.992;2022-11-14T01:29:25;63.75;;;33.53;;
61200;SDS011;47065;52.898;6.992;2022-11-14T01:31:51;72.15;;;35.47;;
61200;SDS011;47065;52.898;6.992;2022-11-14T01:34:17;79.07;;;36.63;;
61200;SDS011;47065;52.898;6.992;2022-11-14T01:36:43;81.32;;;38.83;;
61200;SDS011;47065;52.898;6.992;2022-11-14T01:39:08;84.55;;;37.75;;
61200;SDS011;47065;52.898;6.992;2022-11-14T01:41:34;80.63;;;38.05;;
61200;SDS011;47065;52.898;6.992;2022-11-14T01:44:00;75.95;;;36.53;;
61200;SDS011;47065;52.898;6.992;2022-11-14T01:46:29;85.40;;;38.65;;
61200;SDS011;47065;52.898;6.992;2022-11-14T01:51:43;77.32;;;37.45;;
61200;SDS011;47065;52.898;6.992;2022-11-14T01:54:15;74.80;;;36.95;;
61200;SDS011;47065;52.898;6.992;2022-11-14T01:56:48;74.25;;;35.45;;
61200;SDS011;47065;52.898;6.992;2022-11-14T01:59:20;75.90;;;37.10;;
61200;SDS011;47065;52.898;6.992;2022-11-14T02:01:50;75.25;;;37.72;;
61200;SDS011;47065;52.898;6.992;2022-11-14T02:04:18;79.72;;;37.08;;
61200;SDS011;47065;52.898;6.992;2022-11-14T02:06:48;88.40;;;39.35;;
61200;SDS011;47065;52.898;6.992;2022-11-14T02:09:15;81.28;;;39.05;;
61200;SDS011;47065;52.898;6.992;2022-11-14T02:11:42;81.38;;;39.20;;
61200;SDS011;47065;52.898;6.992;2022-11-14T02:14:10;84.53;;;38.22;;
61200;SDS011;47065;52.898;6.992;2022-11-14T02:16:37;78.93;;;36.92;;
61200;SDS011;47065;52.898;6.992;2022-11-14T02:19:04;84.32;;;40.03;;
61200;SDS011;47065;52.898;6.992;2022-11-14T02:21:30;85.85;;;40.72;;
61200;SDS011;47065;52.898;6.992;2022-11-14T02:23:56;78.13;;;38.60;;
61200;SDS011;47065;52.898;6.992;2022-11-14T02:26:21;83.93;;;39.50;;
61200;SDS011;47065;52.898;6.992;2022-11-14T02:28:47;75.70;;;37.13;;
61200;SDS011;47065;52.898;6.992;2022-11-14T02:31:14;84.32;;;37.50;;
61200;SDS011;47065;52.898;6.992;2022-11-14T02:33:40;76.63;;;36.17;;
61200;SDS011;47065;52.898;6.992;2022-11-14T02:36:06;84.15;;;38.88;;
61200;SDS011;47065;52.898;6.992;2022-11-14T02:38:32;81.80;;;38.20;;
61200;SDS011;47065;52.898;6.992;2022-11-14T02:40:59;82.90;;;38.97;;
61200;SDS011;47065;52.898;6.992;2022-11-14T02:43:25;80.20;;;39.00;;
61200;SDS011;47065;52.898;6.992;2022-11-14T02:45:51;76.28;;;38.88;;
61200;SDS011;47065;52.898;6.992;2022-11-14T02:48:17;71.90;;;35.22;;
61200;SDS011;47065;52.898;6.992;2022-11-14T02:50:43;75.97;;;37.03;;
61200;SDS011;47065;52.898;6.992;2022-11-14T02:53:09;74.63;;;37.28;;
61200;SDS011;47065;52.898;6.992;2022-11-14T02:55:34;76.95;;;37.95;;
61200;SDS011;47065;52.898;6.992;2022-11-14T02:58:00;76.85;;;36.72;;
61200;SDS011;47065;52.898;6.992;2022-11-14T03:00:26;78.15;;;37.92;;
61200;SDS011;47065;52.898;6.992;2022-11-14T03:02:52;72.88;;;35.90;;
61200;SDS011;47065;52.898;6.992;2022-11-14T03:05:18;74.88;;;36.72;;
61200;SDS011;47065;52.898;6.992;2022-11-14T03:07:44;63.20;;;32.28;;
61200;SDS011;47065;52.898;6.992;2022-11-14T03:10:10;67.63;;;34.65;;
61200;SDS011;47065;52.898;6.992;2022-11-14T03:12:38;66.07;;;34.05;;
61200;SDS011;47065;52.898;6.992;2022-11-14T03:15:07;79.53;;;36.85;;
61200;SDS011;47065;52.898;6.992;2022-11-14T03:17:33;72.57;;;36.42;;
61200;SDS011;47065;52.898;6.992;2022-11-14T03:19:59;72.40;;;37.28;;
61200;SDS011;47065;52.898;6.992;2022-11-14T03:22:25;69.03;;;35.22;;
61200;SDS011;47065;52.898;6.992;2022-11-14T03:24:51;71.50;;;34.90;;
61200;SDS011;47065;52.898;6.992;2022-11-14T03:27:17;67.93;;;35.65;;
61200;SDS011;47065;52.898;6.992;2022-11-14T03:29:43;67.63;;;34.70;;
61200;SDS011;47065;52.898;6.992;2022-11-14T03:32:09;60.13;;;32.75;;
61200;SDS011;47065;52.898;6.992;2022-11-14T03:34:34;71.68;;;35.75;;
61200;SDS011;47065;52.898;6.992;2022-11-14T03:37:00;68.25;;;34.70;;
61200;SDS011;47065;52.898;6.992;2022-11-14T03:39:26;73.72;;;36.05;;
61200;SDS011;47065;52.898;6.992;2022-11-14T03:41:52;68.95;;;34.92;;
61200;SDS011;47065;52.898;6.992;2022-11-14T03:44:17;71.35;;;38.05;;
61200;SDS011;47065;52.898;6.992;2022-11-14T03:46:43;65.05;;;34.47;;
61200;SDS011;47065;52.898;6.992;2022-11-14T03:49:09;65.82;;;34.92;;
61200;SDS011;47065;52.898;6.992;2022-11-14T03:51:35;61.60;;;34.13;;
61200;SDS011;47065;52.898;6.992;2022-11-14T03:54:00;66.57;;;35.45;;
61200;SDS011;47065;52.898;6.992;2022-11-14T03:56:26;67.80;;;34.95;;
61200;SDS011;47065;52.898;6.992;2022-11-14T03:58:52;61.13;;;33.65;;
61200;SDS011;47065;52.898;6.992;2022-11-14T04:01:17;65.57;;;34.53;;
61200;SDS011;47065;52.898;6.992;2022-11-14T04:03:43;65.22;;;33.05;;
61200;SDS011;47065;52.898;6.992;2022-11-14T04:06:09;61.13;;;31.88;;
61200;SDS011;47065;52.898;6.992;2022-11-14T04:08:34;61.83;;;32.83;;
61200;SDS011;47065;52.898;6.992;2022-11-14T04:11:00;64.63;;;36.28;;
61200;SDS011;47065;52.898;6.992;2022-11-14T04:13:26;71.18;;;34.42;;
61200;SDS011;47065;52.898;6.992;2022-11-14T04:15:55;66.95;;;36.72;;
61200;SDS011;47065;52.898;6.992;2022-11-14T04:18:21;60.33;;;32.40;;
61200;SDS011;47065;52.898;6.992;2022-11-14T04:20:48;65.90;;;34.83;;
61200;SDS011;47065;52.898;6.992;2022-11-14T04:23:13;61.88;;;32.70;;
61200;SDS011;47065;52.898;6.992;2022-11-14T04:25:39;65.53;;;33.92;;
61200;SDS011;47065;52.898;6.992;2022-11-14T04:28:08;66.97;;;35.97;;
61200;SDS011;47065;52.898;6.992;2022-11-14T04:30:34;68.45;;;34.00;;
61200;SDS011;47065;52.898;6.992;2022-11-14T04:32:59;62.45;;;35.22;;
61200;SDS011;47065;52.898;6.992;2022-11-14T04:35:25;66.75;;;33.33;;
61200;SDS011;47065;52.898;6.992;2022-11-14T04:37:51;65.93;;;35.88;;
61200;SDS011;47065;52.898;6.992;2022-11-14T04:40:16;73.57;;;36.83;;
61200;SDS011;47065;52.898;6.992;2022-11-14T04:42:42;66.35;;;35.20;;
61200;SDS011;47065;52.898;6.992;2022-11-14T04:45:08;65.25;;;33.10;;
61200;SDS011;47065;52.898;6.992;2022-11-14T04:47:34;67.20;;;33.58;;
61200;SDS011;47065;52.898;6.992;2022-11-14T04:50:00;66.22;;;36.50;;
61200;SDS011;47065;52.898;6.992;2022-11-14T04:52:26;69.85;;;37.00;;
61200;SDS011;47065;52.898;6.992;2022-11-14T04:54:52;70.05;;;35.55;;
61200;SDS011;47065;52.898;6.992;2022-11-14T04:57:18;64.10;;;33.88;;
61200;SDS011;47065;52.898;6.992;2022-11-14T04:59:43;72.97;;;33.75;;
61200;SDS011;47065;52.898;6.992;2022-11-14T05:02:09;76.78;;;36.13;;
61200;SDS011;47065;52.898;6.992;2022-11-14T05:04:35;60.30;;;33.05;;
61200;SDS011;47065;52.898;6.992;2022-11-14T05:07:00;67.38;;;35.00;;
61200;SDS011;47065;52.898;6.992;2022-11-14T05:09:26;73.70;;;37.13;;
61200;SDS011;47065;52.898;6.992;2022-11-14T05:11:52;75.85;;;36.65;;
61200;SDS011;47065;52.898;6.992;2022-11-14T05:14:17;66.75;;;34.08;;
61200;SDS011;47065;52.898;6.992;2022-11-14T05:16:43;70.85;;;36.60;;
61200;SDS011;47065;52.898;6.992;2022-11-14T05:19:09;72.88;;;36.25;;
61200;SDS011;47065;52.898;6.992;2022-11-14T05:21:34;69.00;;;36.38;;
61200;SDS011;47065;52.898;6.992;2022-11-14T05:24:00;70.40;;;35.50;;
61200;SDS011;47065;52.898;6.992;2022-11-14T05:26:25;63.75;;;33.85;;
61200;SDS011;47065;52.898;6.992;2022-11-14T05:28:51;71.88;;;34.22;;
61200;SDS011;47065;52.898;6.992;2022-11-14T05:31:17;61.60;;;31.20;;
61200;SDS011;47065;52.898;6.992;2022-11-14T05:33:43;71.13;;;35.55;;
61200;SDS011;47065;52.898;6.992;2022-11-14T05:36:11;73.75;;;35.17;;
61200;SDS011;47065;52.898;6.992;2022-11-14T05:38:41;68.60;;;34.53;;
61200;SDS011;47065;52.898;6.992;2022-11-14T05:41:07;68.47;;;33.17;;
61200;SDS011;47065;52.898;6.992;2022-11-14T05:43:34;73.18;;;35.42;;
61200;SDS011;47065;52.898;6.992;2022-11-14T05:46:08;73.75;;;35.97;;
61200;SDS011;47065;52.898;6.992;2022-11-14T05:48:35;63.85;;;33.85;;
61200;SDS011;47065;52.898;6.992;2022-11-14T05:51:01;75.32;;;35.50;;
61200;SDS011;47065;52.898;6.992;2022-11-14T05:53:29;70.07;;;35.80;;
61200;SDS011;47065;52.898;6.992;2022-11-14T05:55:59;75.40;;;35.50;;
61200;SDS011;47065;52.898;6.992;2022-11-14T05:58:26;78.63;;;34.47;;
61200;SDS011;47065;52.898;6.992;2022-11-14T06:00:52;73.72;;;35.78;;
61200;SDS011;47065;52.898;6.992;2022-11-14T06:03:25;79.82;;;37.03;;
61200;SDS011;47065;52.898;6.992;2022-11-14T06:05:55;71.78;;;35.47;;
61200;SDS011;47065;52.898;6.992;2022-11-14T06:08:20;69.20;;;35.65;;
61200;SDS011;47065;52.898;6.992;2022-11-14T06:10:46;78.32;;;37.42;;
61200;SDS011;47065;52.898;6.992;2022-11-14T06:13:12;82.30;;;37.40;;
61200;SDS011;47065;52.898;6.992;2022-11-14T06:15:37;77.32;;;37.22;;
61200;SDS011;47065;52.898;6.992;2022-11-14T06:18:03;67.85;;;34.72;;
61200;SDS011;47065;52.898;6.992;2022-11-14T06:20:29;76.20;;;34.83;;
61200;SDS011;47065;52.898;6.992;2022-11-14T06:22:54;77.07;;;33.55;;
61200;SDS011;47065;52.898;6.992;2022-11-14T06:25:20;76.90;;;36.30;;
61200;SDS011;47065;52.898;6.992;2022-11-14T06:27:45;76.93;;;34.25;;
61200;SDS011;47065;52.898;6.992;2022-11-14T06:30:11;71.80;;;34.30;;
61200;SDS011;47065;52.898;6.992;2022-11-14T06:32:37;73.45;;;35.42;;
61200;SDS011;47065;52.898;6.992;2022-11-14T06:35:03;77.50;;;37.72;;
61200;SDS011;47065;52.898;6.992;2022-11-14T06:37:29;73.57;;;33.42;;
61200;SDS011;47065;52.898;6.992;2022-11-14T06:39:55;75.75;;;35.13;;
61200;SDS011;47065;52.898;6.992;2022-11-14T06:42:20;80.40;;;38.25;;
61200;SDS011;47065;52.898;6.992;2022-11-14T06:44:46;75.60;;;36.90;;
61200;SDS011;47065;52.898;6.992;2022-11-14T06:47:11;79.97;;;35.92;;
61200;SDS011;47065;52.898;6.992;2022-11-14T06:49:37;72.07;;;33.90;;
61200;SDS011;47065;52.898;6.992;2022-11-14T06:52:03;69.60;;;34.45;;
61200;SDS011;47065;52.898;6.992;2022-11-14T06:54:29;78.95;;;35.28;;
61200;SDS011;47065;52.898;6.992;2022-11-14T06:56:54;82.50;;;38.67;;
61200;SDS011;47065;52.898;6.992;2022-11-14T06:59:20;71.40;;;36.05;;
61200;SDS011;47065;52.898;6.992;2022-11-14T07:01:45;79.85;;;36.75;;
61200;SDS011;47065;52.898;6.992;2022-11-14T07:04:11;73.63;;;35.38;;
61200;SDS011;47065;52.898;6.992;2022-11-14T07:06:37;83.85;;;38.92;;
61200;SDS011;47065;52.898;6.992;2022-11-14T07:09:02;83.15;;;38.10;;
61200;SDS011;47065;52.898;6.992;2022-11-14T07:11:28;74.57;;;36.45;;
61200;SDS011;47065;52.898;6.992;2022-11-14T07:13:55;73.28;;;36.95;;
61200;SDS011;47065;52.898;6.992;2022-11-14T07:16:23;78.53;;;35.58;;
61200;SDS011;47065;52.898;6.992;2022-11-14T07:18:50;67.43;;;33.85;;
61200;SDS011;47065;52.898;6.992;2022-11-14T07:21:16;69.43;;;33.75;;
61200;SDS011;47065;52.898;6.992;2022-11-14T07:23:42;69.57;;;31.95;;
61200;SDS011;47065;52.898;6.992;2022-11-14T07:26:09;66.80;;;34.45;;
61200;SDS011;47065;52.898;6.992;2022-11-14T07:28:36;69.53;;;34.85;;
61200;SDS011;47065;52.898;6.992;2022-11-14T07:31:04;72.38;;;37.15;;
61200;SDS011;47065;52.898;6.992;2022-11-14T07:33:31;70.60;;;33.75;;
61200;SDS011;47065;52.898;6.992;2022-11-14T07:35:57;68.22;;;34.65;;
61200;SDS011;47065;52.898;6.992;2022-11-14T07:38:23;77.35;;;35.63;;
61200;SDS011;47065;52.898;6.992;2022-11-14T07:40:53;68.35;;;33.08;;
61200;SDS011;47065;52.898;6.992;2022-11-14T07:43:29;70.40;;;35.08;;
61200;SDS011;47065;52.898;6.992;2022-11-14T07:46:01;72.70;;;33.85;;
61200;SDS011;47065;52.898;6.992;2022-11-14T07:48:32;75.32;;;34.83;;
61200;SDS011;47065;52.898;6.992;2022-11-14T07:50:58;63.58;;;33.75;;
61200;SDS011;47065;52.898;6.992;2022-11-14T07:53:28;76.95;;;35.38;;
61200;SDS011;47065;52.898;6.992;2022-11-14T07:55:55;71.13;;;35.17;;
61200;SDS011;47065;52.898;6.992;2022-11-14T07:58:22;65.80;;;31.77;;
61200;SDS011;47065;52.898;6.992;2022-11-14T08:00:47;64.22;;;33.65;;
61200;SDS011;47065;52.898;6.992;2022-11-14T08:03:13;65.10;;;32.22;;
61200;SDS011;47065;52.898;6.992;2022-11-14T08:05:39;69.28;;;34.45;;
61200;SDS011;47065;52.898;6.992;2022-11-14T08:08:05;61.72;;;30.08;;
61200;SDS011;47065;52.898;6.992;2022-11-14T08:10:30;60.00;;;31.98;;
61200;SDS011;47065;52.898;6.992;2022-11-14T08:12:57;69.75;;;32.65;;
61200;SDS011;47065;52.898;6.992;2022-11-14T08:15:24;66.85;;;32.72;;
61200;SDS011;47065;52.898;6.992;2022-11-14T08:17:49;62.63;;;31.70;;
61200;SDS011;47065;52.898;6.992;2022-11-14T08:20:15;62.90;;;33.17;;
61200;SDS011;47065;52.898;6.992;2022-11-14T08:22:41;71.30;;;35.67;;
61200;SDS011;47065;52.898;6.992;2022-11-14T08:25:07;65.68;;;34.78;;
61200;SDS011;47065;52.898;6.992;2022-11-14T08:27:32;65.38;;;31.63;;
61200;SDS011;47065;52.898;6.992;2022-11-14T08:29:58;69.75;;;33.58;;
61200;SDS011;47065;52.898;6.992;2022-11-14T08:32:24;68.22;;;32.83;;
61200;SDS011;47065;52.898;6.992;2022-11-14T08:34:49;62.88;;;32.20;;
61200;SDS011;47065;52.898;6.992;2022-11-14T08:37:15;62.13;;;31.30;;
61200;SDS011;47065;52.898;6.992;2022-11-14T08:39:41;64.60;;;32.63;;
61200;SDS011;47065;52.898;6.992;2022-11-14T08:42:06;58.30;;;32.03;;
61200;SDS011;47065;52.898;6.992;2022-11-14T08:44:32;63.10;;;32.20;;
61200;SDS011;47065;52.898;6.992;2022-11-14T08:46:58;68.90;;;34.13;;
61200;SDS011;47065;52.898;6.992;2022-11-14T08:49:24;65.50;;;33.63;;
61200;SDS011;47065;52.898;6.992;2022-11-14T08:51:51;58.92;;;30.48;;
61200;SDS011;47065;52.898;6.992;2022-11-14T08:54:17;57.38;;;29.05;;
61200;SDS011;47065;52.898;6.992;2022-11-14T08:56:43;53.50;;;29.52;;
61200;SDS011;47065;52.898;6.992;2022-11-14T08:59:09;53.28;;;29.55;;
61200;SDS011;47065;52.898;6.992;2022-11-14T09:01:35;55.88;;;29.95;;
61200;SDS011;47065;52.898;6.992;2022-11-14T09:04:01;57.17;;;29.30;;
61200;SDS011;47065;52.898;6.992;2022-11-14T09:06:26;54.92;;;28.05;;
61200;SDS011;47065;52.898;6.992;2022-11-14T09:08:52;53.50;;;29.63;;
61200;SDS011;47065;52.898;6.992;2022-11-14T09:11:18;50.45;;;29.60;;
61200;SDS011;47065;52.898;6.992;2022-11-14T09:13:44;49.95;;;27.73;;
61200;SDS011;47065;52.898;6.992;2022-11-14T09:16:10;51.55;;;28.83;;
61200;SDS011;47065;52.898;6.992;2022-11-14T09:18:36;52.83;;;28.08;;
61200;SDS011;47065;52.898;6.992;2022-11-14T09:21:02;49.28;;;25.50;;
61200;SDS011;47065;52.898;6.992;2022-11-14T09:23:30;50.45;;;28.40;;
61200;SDS011;47065;52.898;6.992;2022-11-14T09:25:56;46.63;;;25.45;;
61200;SDS011;47065;52.898;6.992;2022-11-14T09:28:22;48.17;;;26.85;;
61200;SDS011;47065;52.898;6.992;2022-11-14T09:30:48;51.75;;;27.55;;
61200;SDS011;47065;52.898;6.992;2022-11-14T09:33:14;45.17;;;26.83;;
61200;SDS011;47065;52.898;6.992;2022-11-14T09:35:40;44.13;;;25.42;;
61200;SDS011;47065;52.898;6.992;2022-11-14T09:38:07;43.40;;;24.23;;
61200;SDS011;47065;52.898;6.992;2022-11-14T09:43:20;43.03;;;24.35;;
61200;SDS011;47065;52.898;6.992;2022-11-14T09:45:58;39.83;;;25.95;;
61200;SDS011;47065;52.898;6.992;2022-11-14T09:48:26;41.38;;;24.65;;
61200;SDS011;47065;52.898;6.992;2022-11-14T09:51:07;42.22;;;25.13;;
61200;SDS011;47065;52.898;6.992;2022-11-14T09:53:42;36.30;;;23.23;;
61200;SDS011;47065;52.898;6.992;2022-11-14T09:56:18;42.67;;;24.38;;
61200;SDS011;47065;52.898;6.992;2022-11-14T09:58:48;43.20;;;24.75;;
61200;SDS011;47065;52.898;6.992;2022-11-14T10:03:54;40.83;;;23.98;;
61200;SDS011;47065;52.898;6.992;2022-11-14T10:06:39;43.38;;;24.98;;
61200;SDS011;47065;52.898;6.992;2022-11-14T10:10:25;40.25;;;24.23;;
61200;SDS011;47065;52.898;6.992;2022-11-14T10:15:10;43.22;;;23.00;;
61200;SDS011;47065;52.898;6.992;2022-11-14T10:17:53;37.33;;;24.90;;
61200;SDS011;47065;52.898;6.992;2022-11-14T10:26:55;41.10;;;24.25;;
61200;SDS011;47065;52.898;6.992;2022-11-14T10:32:04;38.17;;;24.77;;
61200;SDS011;47065;52.898;6.992;2022-11-14T10:34:53;43.50;;;24.58;;
61200;SDS011;47065;52.898;6.992;2022-11-14T10:37:35;35.97;;;23.35;;
61200;SDS011;47065;52.898;6.992;2022-11-14T10:40:18;37.15;;;23.70;;
61200;SDS011;47065;52.898;6.992;2022-11-14T10:43:15;35.08;;;21.48;;
61200;SDS011;47065;52.898;6.992;2022-11-14T10:45:47;42.50;;;23.70;;
61200;SDS011;47065;52.898;6.992;2022-11-14T10:48:27;34.15;;;21.83;;
61200;SDS011;47065;52.898;6.992;2022-11-14T10:53:53;35.90;;;21.55;;
61200;SDS011;47065;52.898;6.992;2022-11-14T10:56:24;35.42;;;22.65;;
61200;SDS011;47065;52.898;6.992;2022-11-14T10:58:50;36.30;;;22.75;;
61200;SDS011;47065;52.898;6.992;2022-11-14T11:04:12;30.60;;;20.23;;
61200;SDS011;47065;52.898;6.992;2022-11-14T11:06:43;36.30;;;23.55;;
61200;SDS011;47065;52.898;6.992;2022-11-14T11:09:12;34.22;;;21.85;;
61200;SDS011;47065;52.898;6.992;2022-11-14T11:12:04;35.60;;;23.05;;
61200;SDS011;47065;52.898;6.992;2022-11-14T11:14:31;36.38;;;22.88;;
61200;SDS011;47065;52.898;6.992;2022-11-14T11:19:35;33.10;;;21.55;;
61200;SDS011;47065;52.898;6.992;2022-11-14T11:22:02;35.88;;;21.70;;
61200;SDS011;47065;52.898;6.992;2022-11-14T11:24:32;32.40;;;21.30;;
61200;SDS011;47065;52.898;6.992;2022-11-14T11:29:49;38.47;;;23.25;;
61200;SDS011;47065;52.898;6.992;2022-11-14T11:32:41;35.50;;;21.75;;
61200;SDS011;47065;52.898;6.992;2022-11-14T11:35:11;34.15;;;23.90;;
61200;SDS011;47065;52.898;6.992;2022-11-14T11:37:54;31.45;;;21.65;;
61200;SDS011;47065;52.898;6.992;2022-11-14T11:40:26;33.50;;;20.98;;
61200;SDS011;47065;52.898;6.992;2022-11-14T11:45:25;33.40;;;21.17;;
61200;SDS011;47065;52.898;6.992;2022-11-14T11:47:58;34.83;;;23.35;;
61200;SDS011;47065;52.898;6.992;2022-11-14T11:50:29;33.35;;;21.60;;
61200;SDS011;47065;52.898;6.992;2022-11-14T11:55:43;34.88;;;21.85;;
61200;SDS011;47065;52.898;6.992;2022-11-14T11:58:15;31.27;;;21.15;;
61200;SDS011;47065;52.898;6.992;2022-11-14T12:00:44;29.38;;;20.23;;
61200;SDS011;47065;52.898;6.992;2022-11-14T12:03:13;27.05;;;18.27;;
61200;SDS011;47065;52.898;6.992;2022-11-14T12:05:49;30.55;;;19.73;;
61200;SDS011;47065;52.898;6.992;2022-11-14T12:11:08;32.53;;;20.48;;
61200;SDS011;47065;52.898;6.992;2022-11-14T12:13:46;31.75;;;19.40;;
61200;SDS011;47065;52.898;6.992;2022-11-14T12:19:15;27.80;;;19.70;;
61200;SDS011;47065;52.898;6.992;2022-11-14T12:22:29;30.80;;;20.00;;
61200;SDS011;47065;52.898;6.992;2022-11-14T12:28:30;30.35;;;18.90;;
61200;SDS011;47065;52.898;6.992;2022-11-14T12:31:00;30.88;;;19.55;;
61200;SDS011;47065;52.898;6.992;2022-11-14T12:33:30;28.25;;;18.48;;
61200;SDS011;47065;52.898;6.992;2022-11-14T12:36:02;29.50;;;18.35;;
61200;SDS011;47065;52.898;6.992;2022-11-14T12:38:42;29.75;;;19.20;;
61200;SDS011;47065;52.898;6.992;2022-11-14T12:41:11;27.05;;;18.70;;
61200;SDS011;47065;52.898;6.992;2022-11-14T12:43:52;27.00;;;17.65;;
61200;SDS011;47065;52.898;6.992;2022-11-14T12:55:03;27.38;;;16.17;;
61200;SDS011;47065;52.898;6.992;2022-11-14T13:00:28;26.40;;;17.35;;
61200;SDS011;47065;52.898;6.992;2022-11-14T13:05:47;25.23;;;16.75;;
61200;SDS011;47065;52.898;6.992;2022-11-14T13:08:19;22.08;;;16.30;;
61200;SDS011;47065;52.898;6.992;2022-11-14T13:10:59;29.33;;;17.05;;
61200;SDS011;47065;52.898;6.992;2022-11-14T13:14:06;23.00;;;15.82;;
61200;SDS011;47065;52.898;6.992;2022-11-14T13:16:51;25.92;;;16.95;;
61200;SDS011;47065;52.898;6.992;2022-11-14T13:19:44;22.75;;;16.38;;
61200;SDS011;47065;52.898;6.992;2022-11-14T13:22:42;24.83;;;15.95;;
61200;SDS011;47065;52.898;6.992;2022-11-14T13:25:16;24.42;;;16.42;;
61200;SDS011;47065;52.898;6.992;2022-11-14T13:27:43;22.98;;;15.80;;
61200;SDS011;47065;52.898;6.992;2022-11-14T13:30:09;24.35;;;15.77;;
61200;SDS011;47065;52.898;6.992;2022-11-14T13:37:57;21.90;;;15.77;;
61200;SDS011;47065;52.898;6.992;2022-11-14T13:41:19;21.20;;;15.55;;
61200;SDS011;47065;52.898;6.992;2022-11-14T13:46:43;22.35;;;15.25;;
61200;SDS011;47065;52.898;6.992;2022-11-14T13:52:54;25.70;;;16.85;;
61200;SDS011;47065;52.898;6.992;2022-11-14T13:55:22;24.90;;;15.63;;
61200;SDS011;47065;52.898;6.992;2022-11-14T13:58:00;23.50;;;15.90;;
61200;SDS011;47065;52.898;6.992;2022-11-14T14:00:28;23.35;;;15.43;;
61200;SDS011;47065;52.898;6.992;2022-11-14T14:03:26;23.40;;;15.38;;
61200;SDS011;47065;52.898;6.992;2022-11-14T14:16:40;23.38;;;14.93;;
61200;SDS011;47065;52.898;6.992;2022-11-14T14:30:30;24.45;;;15.73;;
61200;SDS011;47065;52.898;6.992;2022-11-14T14:35:32;24.83;;;15.32;;
61200;SDS011;47065;52.898;6.992;2022-11-14T14:37:59;20.92;;;14.68;;
61200;SDS011;47065;52.898;6.992;2022-11-14T14:40:27;20.45;;;14.10;;
61200;SDS011;47065;52.898;6.992;2022-11-14T14:42:58;26.08;;;15.70;;
61200;SDS011;47065;52.898;6.992;2022-11-14T14:45:25;23.77;;;14.30;;
61200;SDS011;47065;52.898;6.992;2022-11-14T14:47:59;20.67;;;15.25;;
61200;SDS011;47065;52.898;6.992;2022-11-14T14:50:29;26.40;;;14.43;;
61200;SDS011;47065;52.898;6.992;2022-11-14T14:53:04;23.67;;;16.40;;
61200;SDS011;47065;52.898;6.992;2022-11-14T14:55:32;23.40;;;14.07;;
61200;SDS011;47065;52.898;6.992;2022-11-14T14:58:12;21.45;;;14.27;;
61200;SDS011;47065;52.898;6.992;2022-11-14T15:00:39;22.75;;;15.48;;
61200;SDS011;47065;52.898;6.992;2022-11-14T15:03:15;21.70;;;13.68;;
61200;SDS011;47065;52.898;6.992;2022-11-14T15:05:42;23.70;;;14.57;;
61200;SDS011;47065;52.898;6.992;2022-11-14T15:08:10;26.00;;;15.43;;
61200;SDS011;47065;52.898;6.992;2022-11-14T15:10:38;22.60;;;14.10;;
61200;SDS011;47065;52.898;6.992;2022-11-14T15:13:04;21.80;;;13.75;;
61200;SDS011;47065;52.898;6.992;2022-11-14T15:15:30;21.05;;;14.80;;
61200;SDS011;47065;52.898;6.992;2022-11-14T15:17:58;23.52;;;13.98;;
61200;SDS011;47065;52.898;6.992;2022-11-14T15:20:29;20.52;;;14.82;;
61200;SDS011;47065;52.898;6.992;2022-11-14T15:23:02;25.10;;;15.30;;
61200;SDS011;47065;52.898;6.992;2022-11-14T15:25:34;23.70;;;14.95;;
61200;SDS011;47065;52.898;6.992;2022-11-14T15:28:01;24.13;;;14.02;;
61200;SDS011;47065;52.898;6.992;2022-11-14T15:30:31;25.63;;;15.63;;
61200;SDS011;47065;52.898;6.992;2022-11-14T15:33:02;24.52;;;14.88;;
61200;SDS011;47065;52.898;6.992;2022-11-14T15:35:30;23.15;;;16.75;;
61200;SDS011;47065;52.898;6.992;2022-11-14T15:38:00;28.23;;;15.45;;
61200;SDS011;47065;52.898;6.992;2022-11-14T15:40:31;23.23;;;15.55;;
61200;SDS011;47065;52.898;6.992;2022-11-14T15:42:58;22.38;;;15.48;;
61200;SDS011;47065;52.898;6.992;2022-11-14T15:48:00;22.42;;;14.02;;
61200;SDS011;47065;52.898;6.992;2022-11-14T15:50:29;21.52;;;14.13;;
61200;SDS011;47065;52.898;6.992;2022-11-14T15:52:58;21.77;;;14.27;;
61200;SDS011;47065;52.898;6.992;2022-11-14T15:55:27;22.85;;;13.98;;
61200;SDS011;47065;52.898;6.992;2022-11-14T15:57:52;22.85;;;14.55;;
61200;SDS011;47065;52.898;6.992;2022-11-14T16:00:18;22.15;;;14.70;;
61200;SDS011;47065;52.898;6.992;2022-11-14T16:02:54;23.70;;;14.38;;
61200;SDS011;47065;52.898;6.992;2022-11-14T16:05:26;23.92;;;15.45;;
61200;SDS011;47065;52.898;6.992;2022-11-14T16:07:53;25.17;;;15.10;;
61200;SDS011;47065;52.898;6.992;2022-11-14T16:10:20;22.73;;;15.13;;